sensor_id;sensor_type;location;lat;lon;timestamp;temperature;humidity
40059;SHT31;25763;49.972;8.568;2022-11-13T00:00:33;5.38;93.43
40059;SHT31;25763;49.972;8.568;2022-11-13T00:02:58;5.48;93.41
40059;SHT31;25763;49.972;8.568;2022-11-13T00:05:24;5.38;93.34
40059;SHT31;25763;49.972;8.568;2022-11-13T00:07:49;5.47;93.33
40059;SHT31;25763;49.972;8.568;2022-11-13T00:10:15;5.40;93.32
40059;SHT31;25763;49.972;8.568;2022-11-13T00:12:40;5.30;93.34
40059;SHT31;25763;49.972;8.568;2022-11-13T00:15:06;5.23;93.43
40059;SHT31;25763;49.972;8.568;2022-11-13T00:17:31;5.35;93.48
40059;SHT31;25763;49.972;8.568;2022-11-13T00:19:56;5.39;93.49
40059;SHT31;25763;49.972;8.568;2022-11-13T00:22:22;5.42;93.50
40059;SHT31;25763;49.972;8.568;2022-11-13T00:24:47;5.40;93.50
40059;SHT31;25763;49.972;8.568;2022-11-13T00:27:13;5.53;93.47
40059;SHT31;25763;49.972;8.568;2022-11-13T00:29:39;5.46;93.40
40059;SHT31;25763;49.972;8.568;2022-11-13T00:32:04;5.40;93.35
40059;SHT31;25763;49.972;8.568;2022-11-13T00:34:30;5.42;93.27
40059;SHT31;25763;49.972;8.568;2022-11-13T00:36:55;5.22;93.26
40059;SHT31;25763;49.972;8.568;2022-11-13T00:39:20;5.23;93.34
40059;SHT31;25763;49.972;8.568;2022-11-13T00:41:46;5.32;93.30
40059;SHT31;25763;49.972;8.568;2022-11-13T00:44:11;5.33;93.31
40059;SHT31;25763;49.972;8.568;2022-11-13T00:46:37;5.21;93.29
40059;SHT31;25763;49.972;8.568;2022-11-13T00:49:02;5.12;93.42
40059;SHT31;25763;49.972;8.568;2022-11-13T00:51:28;5.33;93.40
40059;SHT31;25763;49.972;8.568;2022-11-13T00:53:53;5.28;93.37
40059;SHT31;25763;49.972;8.568;2022-11-13T00:56:19;5.47;93.35
40059;SHT31;25763;49.972;8.568;2022-11-13T00:58:44;5.64;93.32
40059;SHT31;25763;49.972;8.568;2022-11-13T01:01:12;5.57;93.18
40059;SHT31;25763;49.972;8.568;2022-11-13T01:03:38;5.60;93.09
40059;SHT31;25763;49.972;8.568;2022-11-13T01:06:20;5.23;92.91
40059;SHT31;25763;49.972;8.568;2022-11-13T01:08:46;5.07;93.09
40059;SHT31;25763;49.972;8.568;2022-11-13T01:11:16;5.07;93.32
40059;SHT31;25763;49.972;8.568;2022-11-13T01:13:44;5.05;93.31
40059;SHT31;25763;49.972;8.568;2022-11-13T01:16:11;5.08;93.30
40059;SHT31;25763;49.972;8.568;2022-11-13T01:18:37;5.04;93.39
40059;SHT31;25763;49.972;8.568;2022-11-13T01:21:11;4.97;93.41
40059;SHT31;25763;49.972;8.568;2022-11-13T01:23:37;4.95;93.46
40059;SHT31;25763;49.972;8.568;2022-11-13T01:26:13;4.97;93.47
40059;SHT31;25763;49.972;8.568;2022-11-13T01:28:41;5.03;93.45
40059;SHT31;25763;49.972;8.568;2022-11-13T01:31:13;4.95;93.42
40059;SHT31;25763;49.972;8.568;2022-11-13T01:33:39;4.87;93.43
40059;SHT31;25763;49.972;8.568;2022-11-13T01:36:11;4.77;93.33
40059;SHT31;25763;49.972;8.568;2022-11-13T01:38:37;4.69;93.31
40059;SHT31;25763;49.972;8.568;2022-11-13T01:41:03;4.65;93.37
40059;SHT31;25763;49.972;8.568;2022-11-13T01:43:31;4.65;93.35
40059;SHT31;25763;49.972;8.568;2022-11-13T01:48:31;4.65;93.41
40059;SHT31;25763;49.972;8.568;2022-11-13T01:50:57;4.65;93.40
40059;SHT31;25763;49.972;8.568;2022-11-13T01:53:24;4.62;93.35
40059;SHT31;25763;49.972;8.568;2022-11-13T01:55:50;4.63;93.30
40059;SHT31;25763;49.972;8.568;2022-11-13T01:58:15;4.65;93.26
40059;SHT31;25763;49.972;8.568;2022-11-13T02:00:41;4.63;93.29
40059;SHT31;25763;49.972;8.568;2022-11-13T02:03:06;4.69;93.24
40059;SHT31;25763;49.972;8.568;2022-11-13T02:05:31;4.63;93.20
40059;SHT31;25763;49.972;8.568;2022-11-13T02:07:57;4.59;93.14
40059;SHT31;25763;49.972;8.568;2022-11-13T02:10:22;4.52;93.17
40059;SHT31;25763;49.972;8.568;2022-11-13T02:12:49;4.65;93.23
40059;SHT31;25763;49.972;8.568;2022-11-13T02:15:18;4.59;93.18
40059;SHT31;25763;49.972;8.568;2022-11-13T02:17:47;4.49;93.17
40059;SHT31;25763;49.972;8.568;2022-11-13T02:20:14;4.49;93.20
40059;SHT31;25763;49.972;8.568;2022-11-13T02:25:24;4.56;93.15
40059;SHT31;25763;49.972;8.568;2022-11-13T02:27:51;4.39;93.13
40059;SHT31;25763;49.972;8.568;2022-11-13T02:30:20;4.31;93.12
40059;SHT31;25763;49.972;8.568;2022-11-13T02:32:48;4.32;93.23
40059;SHT31;25763;49.972;8.568;2022-11-13T02:35:34;4.25;93.20
40059;SHT31;25763;49.972;8.568;2022-11-13T02:38:03;4.25;93.20
40059;SHT31;25763;49.972;8.568;2022-11-13T02:40:30;4.17;93.17
40059;SHT31;25763;49.972;8.568;2022-11-13T02:42:55;4.31;93.21
40059;SHT31;25763;49.972;8.568;2022-11-13T02:45:21;4.36;93.14
40059;SHT31;25763;49.972;8.568;2022-11-13T02:47:46;4.31;93.08
40059;SHT31;25763;49.972;8.568;2022-11-13T02:50:12;4.36;93.02
40059;SHT31;25763;49.972;8.568;2022-11-13T02:52:38;4.44;92.94
40059;SHT31;25763;49.972;8.568;2022-11-13T02:55:04;4.18;92.83
40059;SHT31;25763;49.972;8.568;2022-11-13T02:57:29;4.17;92.91
40059;SHT31;25763;49.972;8.568;2022-11-13T02:59:55;4.14;92.88
40059;SHT31;25763;49.972;8.568;2022-11-13T03:02:20;4.10;92.85
40059;SHT31;25763;49.972;8.568;2022-11-13T03:04:46;4.13;92.86
40059;SHT31;25763;49.972;8.568;2022-11-13T03:07:12;4.13;92.81
40059;SHT31;25763;49.972;8.568;2022-11-13T03:09:40;4.09;92.73
40059;SHT31;25763;49.972;8.568;2022-11-13T03:12:07;4.06;92.67
40059;SHT31;25763;49.972;8.568;2022-11-13T03:14:33;4.00;92.62
40059;SHT31;25763;49.972;8.568;2022-11-13T03:16:58;3.94;92.51
40059;SHT31;25763;49.972;8.568;2022-11-13T03:19:24;3.97;92.50
40059;SHT31;25763;49.972;8.568;2022-11-13T03:21:49;4.10;92.49
40059;SHT31;25763;49.972;8.568;2022-11-13T03:24:14;4.04;92.39
40059;SHT31;25763;49.972;8.568;2022-11-13T03:26:40;4.03;92.32
40059;SHT31;25763;49.972;8.568;2022-11-13T03:29:05;4.10;92.32
40059;SHT31;25763;49.972;8.568;2022-11-13T03:31:31;4.07;92.26
40059;SHT31;25763;49.972;8.568;2022-11-13T03:33:56;4.09;92.19
40059;SHT31;25763;49.972;8.568;2022-11-13T03:36:21;4.01;92.13
40059;SHT31;25763;49.972;8.568;2022-11-13T03:38:47;4.06;92.10
40059;SHT31;25763;49.972;8.568;2022-11-13T03:41:12;3.94;92.04
40059;SHT31;25763;49.972;8.568;2022-11-13T03:43:41;3.92;92.01
40059;SHT31;25763;49.972;8.568;2022-11-13T03:46:07;3.90;92.03
40059;SHT31;25763;49.972;8.568;2022-11-13T03:48:33;3.94;92.01
40059;SHT31;25763;49.972;8.568;2022-11-13T03:50:58;3.97;91.99
40059;SHT31;25763;49.972;8.568;2022-11-13T03:53:24;4.04;91.94
40059;SHT31;25763;49.972;8.568;2022-11-13T03:55:50;4.03;91.79
40059;SHT31;25763;49.972;8.568;2022-11-13T03:58:15;3.81;91.77
40059;SHT31;25763;49.972;8.568;2022-11-13T04:00:42;3.69;91.81
40059;SHT31;25763;49.972;8.568;2022-11-13T04:03:08;3.54;91.96
40059;SHT31;25763;49.972;8.568;2022-11-13T04:05:33;3.44;92.16
40059;SHT31;25763;49.972;8.568;2022-11-13T04:07:59;3.40;92.32
40059;SHT31;25763;49.972;8.568;2022-11-13T04:10:25;3.33;92.46
40059;SHT31;25763;49.972;8.568;2022-11-13T04:12:50;3.30;92.56
40059;SHT31;25763;49.972;8.568;2022-11-13T04:15:16;3.34;92.60
40059;SHT31;25763;49.972;8.568;2022-11-13T04:17:41;3.30;92.67
40059;SHT31;25763;49.972;8.568;2022-11-13T04:20:07;3.30;92.70
40059;SHT31;25763;49.972;8.568;2022-11-13T04:22:33;3.31;92.67
40059;SHT31;25763;49.972;8.568;2022-11-13T04:24:58;3.30;92.68
40059;SHT31;25763;49.972;8.568;2022-11-13T04:27:24;3.33;92.67
40059;SHT31;25763;49.972;8.568;2022-11-13T04:29:49;3.31;92.63
40059;SHT31;25763;49.972;8.568;2022-11-13T04:32:15;3.34;92.60
40059;SHT31;25763;49.972;8.568;2022-11-13T04:34:40;3.34;92.61
40059;SHT31;25763;49.972;8.568;2022-11-13T04:37:06;3.37;92.58
40059;SHT31;25763;49.972;8.568;2022-11-13T04:39:31;3.36;92.58
40059;SHT31;25763;49.972;8.568;2022-11-13T04:41:56;3.47;92.55
40059;SHT31;25763;49.972;8.568;2022-11-13T04:44:41;3.57;92.47
40059;SHT31;25763;49.972;8.568;2022-11-13T04:47:06;3.57;92.37
40059;SHT31;25763;49.972;8.568;2022-11-13T04:49:32;3.71;92.30
40059;SHT31;25763;49.972;8.568;2022-11-13T04:51:58;3.71;92.20
40059;SHT31;25763;49.972;8.568;2022-11-13T04:54:23;3.76;92.08
40059;SHT31;25763;49.972;8.568;2022-11-13T04:56:48;3.75;91.99
40059;SHT31;25763;49.972;8.568;2022-11-13T04:59:14;3.76;91.91
40059;SHT31;25763;49.972;8.568;2022-11-13T05:01:39;3.82;91.89
40059;SHT31;25763;49.972;8.568;2022-11-13T05:04:04;3.83;91.85
40059;SHT31;25763;49.972;8.568;2022-11-13T05:06:30;3.86;91.81
40059;SHT31;25763;49.972;8.568;2022-11-13T05:08:55;3.92;91.81
40059;SHT31;25763;49.972;8.568;2022-11-13T05:11:21;3.89;91.75
40059;SHT31;25763;49.972;8.568;2022-11-13T05:13:46;3.93;91.67
40059;SHT31;25763;49.972;8.568;2022-11-13T05:16:13;3.89;91.63
40059;SHT31;25763;49.972;8.568;2022-11-13T05:18:39;3.89;91.53
40059;SHT31;25763;49.972;8.568;2022-11-13T05:21:06;3.87;91.48
40059;SHT31;25763;49.972;8.568;2022-11-13T05:23:32;3.92;91.40
40059;SHT31;25763;49.972;8.568;2022-11-13T05:26:05;3.89;91.36
40059;SHT31;25763;49.972;8.568;2022-11-13T05:28:32;3.87;91.35
40059;SHT31;25763;49.972;8.568;2022-11-13T05:31:12;3.87;91.32
40059;SHT31;25763;49.972;8.568;2022-11-13T05:33:39;3.89;91.29
40059;SHT31;25763;49.972;8.568;2022-11-13T05:36:10;3.87;91.28
40059;SHT31;25763;49.972;8.568;2022-11-13T05:38:36;3.89;91.20
40059;SHT31;25763;49.972;8.568;2022-11-13T05:41:13;3.86;91.10
40059;SHT31;25763;49.972;8.568;2022-11-13T05:43:40;3.79;91.00
40059;SHT31;25763;49.972;8.568;2022-11-13T05:46:23;3.78;90.96
40059;SHT31;25763;49.972;8.568;2022-11-13T05:48:56;3.76;90.97
40059;SHT31;25763;49.972;8.568;2022-11-13T05:51:25;3.76;90.96
40059;SHT31;25763;49.972;8.568;2022-11-13T05:53:52;3.74;90.88
40059;SHT31;25763;49.972;8.568;2022-11-13T05:56:29;3.74;90.93
40059;SHT31;25763;49.972;8.568;2022-11-13T05:58:55;3.74;90.87
40059;SHT31;25763;49.972;8.568;2022-11-13T06:01:28;3.74;90.89
40059;SHT31;25763;49.972;8.568;2022-11-13T06:03:55;3.74;90.84
40059;SHT31;25763;49.972;8.568;2022-11-13T06:06:21;3.72;90.75
40059;SHT31;25763;49.972;8.568;2022-11-13T06:08:48;3.69;90.72
40059;SHT31;25763;49.972;8.568;2022-11-13T06:11:16;3.64;90.69
40059;SHT31;25763;49.972;8.568;2022-11-13T06:13:42;3.62;90.66
40059;SHT31;25763;49.972;8.568;2022-11-13T06:16:13;3.64;90.68
40059;SHT31;25763;49.972;8.568;2022-11-13T06:18:39;3.61;90.64
40059;SHT31;25763;49.972;8.568;2022-11-13T06:21:11;3.58;90.61
40059;SHT31;25763;49.972;8.568;2022-11-13T06:23:38;3.61;90.60
40059;SHT31;25763;49.972;8.568;2022-11-13T06:26:09;3.51;90.57
40059;SHT31;25763;49.972;8.568;2022-11-13T06:28:35;3.36;90.64
40059;SHT31;25763;49.972;8.568;2022-11-13T06:31:03;3.20;90.75
40059;SHT31;25763;49.972;8.568;2022-11-13T06:33:28;3.10;90.75
40059;SHT31;25763;49.972;8.568;2022-11-13T06:35:53;3.05;90.55
40059;SHT31;25763;49.972;8.568;2022-11-13T06:38:19;2.78;90.12
40059;SHT31;25763;49.972;8.568;2022-11-13T06:40:44;2.77;90.11
40059;SHT31;25763;49.972;8.568;2022-11-13T06:43:10;2.67;89.90
40059;SHT31;25763;49.972;8.568;2022-11-13T06:45:35;2.71;89.74
40059;SHT31;25763;49.972;8.568;2022-11-13T06:48:00;2.71;89.61
40059;SHT31;25763;49.972;8.568;2022-11-13T06:50:26;2.64;89.68
40059;SHT31;25763;49.972;8.568;2022-11-13T06:52:51;2.77;89.70
40059;SHT31;25763;49.972;8.568;2022-11-13T06:55:16;2.92;89.76
40059;SHT31;25763;49.972;8.568;2022-11-13T06:57:42;3.02;89.84
40059;SHT31;25763;49.972;8.568;2022-11-13T07:00:08;3.09;89.77
40059;SHT31;25763;49.972;8.568;2022-11-13T07:02:33;3.13;89.68
40059;SHT31;25763;49.972;8.568;2022-11-13T07:04:59;3.00;89.66
40059;SHT31;25763;49.972;8.568;2022-11-13T07:07:24;2.93;89.56
40059;SHT31;25763;49.972;8.568;2022-11-13T07:09:49;2.89;89.67
40059;SHT31;25763;49.972;8.568;2022-11-13T07:12:15;2.85;89.72
40059;SHT31;25763;49.972;8.568;2022-11-13T07:14:40;2.92;89.67
40059;SHT31;25763;49.972;8.568;2022-11-13T07:17:05;2.96;89.55
40059;SHT31;25763;49.972;8.568;2022-11-13T07:19:31;2.99;89.48
40059;SHT31;25763;49.972;8.568;2022-11-13T07:21:56;3.12;89.40
40059;SHT31;25763;49.972;8.568;2022-11-13T07:24:21;3.19;89.24
40059;SHT31;25763;49.972;8.568;2022-11-13T07:26:47;3.07;89.32
40059;SHT31;25763;49.972;8.568;2022-11-13T07:29:12;3.13;89.66
40059;SHT31;25763;49.972;8.568;2022-11-13T07:31:37;3.27;89.80
40059;SHT31;25763;49.972;8.568;2022-11-13T07:34:03;3.44;89.84
40059;SHT31;25763;49.972;8.568;2022-11-13T07:36:28;3.65;89.80
40059;SHT31;25763;49.972;8.568;2022-11-13T07:38:54;3.83;89.67
40059;SHT31;25763;49.972;8.568;2022-11-13T07:41:19;3.94;89.51
40059;SHT31;25763;49.972;8.568;2022-11-13T07:43:44;4.06;89.50
40059;SHT31;25763;49.972;8.568;2022-11-13T07:46:09;4.13;89.43
40059;SHT31;25763;49.972;8.568;2022-11-13T07:48:35;4.27;89.49
40059;SHT31;25763;49.972;8.568;2022-11-13T07:51:01;4.34;89.40
40059;SHT31;25763;49.972;8.568;2022-11-13T07:53:26;4.28;89.28
40059;SHT31;25763;49.972;8.568;2022-11-13T07:55:52;4.52;89.46
40059;SHT31;25763;49.972;8.568;2022-11-13T07:58:17;4.48;89.04
40059;SHT31;25763;49.972;8.568;2022-11-13T08:00:43;4.62;89.19
40059;SHT31;25763;49.972;8.568;2022-11-13T08:03:14;4.60;88.91
40059;SHT31;25763;49.972;8.568;2022-11-13T08:05:40;4.59;89.08
40059;SHT31;25763;49.972;8.568;2022-11-13T08:08:06;4.70;89.23
40059;SHT31;25763;49.972;8.568;2022-11-13T08:10:31;4.77;89.10
40059;SHT31;25763;49.972;8.568;2022-11-13T08:13:03;4.95;88.82
40059;SHT31;25763;49.972;8.568;2022-11-13T08:15:30;5.16;88.69
40059;SHT31;25763;49.972;8.568;2022-11-13T08:17:57;5.13;88.20
40059;SHT31;25763;49.972;8.568;2022-11-13T08:20:23;5.39;88.33
40059;SHT31;25763;49.972;8.568;2022-11-13T08:22:49;5.33;87.82
40059;SHT31;25763;49.972;8.568;2022-11-13T08:25:16;5.48;87.77
40059;SHT31;25763;49.972;8.568;2022-11-13T08:27:41;5.70;87.56
40059;SHT31;25763;49.972;8.568;2022-11-13T08:30:07;5.82;87.30
40059;SHT31;25763;49.972;8.568;2022-11-13T08:32:33;5.69;86.72
40059;SHT31;25763;49.972;8.568;2022-11-13T08:34:58;5.75;86.83
40059;SHT31;25763;49.972;8.568;2022-11-13T08:37:23;5.85;86.68
40059;SHT31;25763;49.972;8.568;2022-11-13T08:39:49;6.16;86.70
40059;SHT31;25763;49.972;8.568;2022-11-13T08:42:14;6.34;86.33
40059;SHT31;25763;49.972;8.568;2022-11-13T08:44:39;6.07;85.83
40059;SHT31;25763;49.972;8.568;2022-11-13T08:47:05;6.26;86.06
40059;SHT31;25763;49.972;8.568;2022-11-13T08:49:30;6.50;85.96
40059;SHT31;25763;49.972;8.568;2022-11-13T08:51:56;6.72;85.51
40059;SHT31;25763;49.972;8.568;2022-11-13T08:54:21;6.82;85.13
40059;SHT31;25763;49.972;8.568;2022-11-13T08:56:47;7.16;85.14
40059;SHT31;25763;49.972;8.568;2022-11-13T08:59:13;6.93;84.36
40059;SHT31;25763;49.972;8.568;2022-11-13T09:01:38;6.93;84.15
40059;SHT31;25763;49.972;8.568;2022-11-13T09:04:04;6.85;84.73
40059;SHT31;25763;49.972;8.568;2022-11-13T09:06:29;6.93;84.45
40059;SHT31;25763;49.972;8.568;2022-11-13T09:08:54;7.34;84.79
40059;SHT31;25763;49.972;8.568;2022-11-13T09:11:20;7.32;83.91
40059;SHT31;25763;49.972;8.568;2022-11-13T09:13:46;7.46;84.55
40059;SHT31;25763;49.972;8.568;2022-11-13T09:16:12;7.60;83.95
40059;SHT31;25763;49.972;8.568;2022-11-13T09:18:37;7.62;83.62
40059;SHT31;25763;49.972;8.568;2022-11-13T09:21:03;7.85;82.99
40059;SHT31;25763;49.972;8.568;2022-11-13T09:23:28;7.94;82.68
40059;SHT31;25763;49.972;8.568;2022-11-13T09:25:53;8.10;82.34
40059;SHT31;25763;49.972;8.568;2022-11-13T09:28:19;8.10;82.02
40059;SHT31;25763;49.972;8.568;2022-11-13T09:30:44;7.83;81.91
40059;SHT31;25763;49.972;8.568;2022-11-13T09:33:10;7.98;82.35
40059;SHT31;25763;49.972;8.568;2022-11-13T09:35:40;8.10;82.28
40059;SHT31;25763;49.972;8.568;2022-11-13T09:38:11;8.17;81.67
40059;SHT31;25763;49.972;8.568;2022-11-13T09:41:12;8.25;81.64
40059;SHT31;25763;49.972;8.568;2022-11-13T09:49:03;8.60;80.15
40059;SHT31;25763;49.972;8.568;2022-11-13T09:51:34;8.52;80.51
40059;SHT31;25763;49.972;8.568;2022-11-13T09:54:04;8.46;80.64
40059;SHT31;25763;49.972;8.568;2022-11-13T09:56:34;8.56;81.08
40059;SHT31;25763;49.972;8.568;2022-11-13T10:04:55;9.15;79.88
40059;SHT31;25763;49.972;8.568;2022-11-13T10:07:54;9.14;79.05
40059;SHT31;25763;49.972;8.568;2022-11-13T10:10:35;9.37;79.26
40059;SHT31;25763;49.972;8.568;2022-11-13T10:13:02;9.61;79.05
40059;SHT31;25763;49.972;8.568;2022-11-13T10:15:29;9.41;78.39
40059;SHT31;25763;49.972;8.568;2022-11-13T10:18:05;9.36;78.77
40059;SHT31;25763;49.972;8.568;2022-11-13T10:20:39;9.55;78.16
40059;SHT31;25763;49.972;8.568;2022-11-13T10:23:19;9.71;77.19
40059;SHT31;25763;49.972;8.568;2022-11-13T10:25:45;9.92;77.28
40059;SHT31;25763;49.972;8.568;2022-11-13T10:28:15;10.34;78.06
40059;SHT31;25763;49.972;8.568;2022-11-13T10:30:41;10.64;77.95
40059;SHT31;25763;49.972;8.568;2022-11-13T10:33:08;10.17;75.95
40059;SHT31;25763;49.972;8.568;2022-11-13T10:40:39;10.73;74.21
40059;SHT31;25763;49.972;8.568;2022-11-13T10:45:31;10.90;73.82
40059;SHT31;25763;49.972;8.568;2022-11-13T10:47:57;11.06;73.58
40059;SHT31;25763;49.972;8.568;2022-11-13T10:50:28;11.45;74.58
40059;SHT31;25763;49.972;8.568;2022-11-13T10:52:54;11.56;74.83
40059;SHT31;25763;49.972;8.568;2022-11-13T10:55:38;11.11;71.49
40059;SHT31;25763;49.972;8.568;2022-11-13T10:58:15;11.45;73.62
40059;SHT31;25763;49.972;8.568;2022-11-13T11:00:41;11.53;71.62
40059;SHT31;25763;49.972;8.568;2022-11-13T11:03:22;11.45;71.46
40059;SHT31;25763;49.972;8.568;2022-11-13T11:05:53;11.14;70.96
40059;SHT31;25763;49.972;8.568;2022-11-13T11:08:21;11.12;71.56
40059;SHT31;25763;49.972;8.568;2022-11-13T11:11:00;11.24;72.09
40059;SHT31;25763;49.972;8.568;2022-11-13T11:13:44;11.55;72.23
40059;SHT31;25763;49.972;8.568;2022-11-13T11:16:16;11.81;72.86
40059;SHT31;25763;49.972;8.568;2022-11-13T11:18:50;11.95;71.58
40059;SHT31;25763;49.972;8.568;2022-11-13T11:21:30;11.77;68.21
40059;SHT31;25763;49.972;8.568;2022-11-13T11:24:12;11.74;69.38
40059;SHT31;25763;49.972;8.568;2022-11-13T11:34:38;11.95;69.86
40059;SHT31;25763;49.972;8.568;2022-11-13T11:37:21;12.06;69.43
40059;SHT31;25763;49.972;8.568;2022-11-13T11:40:04;12.28;70.28
40059;SHT31;25763;49.972;8.568;2022-11-13T11:42:45;12.36;68.40
40059;SHT31;25763;49.972;8.568;2022-11-13T11:45:15;12.22;67.85
40059;SHT31;25763;49.972;8.568;2022-11-13T11:47:41;12.18;68.41
40059;SHT31;25763;49.972;8.568;2022-11-13T11:50:16;12.20;68.67
40059;SHT31;25763;49.972;8.568;2022-11-13T11:52:45;12.25;67.88
40059;SHT31;25763;49.972;8.568;2022-11-13T11:55:48;12.32;67.72
40059;SHT31;25763;49.972;8.568;2022-11-13T12:01:04;12.35;66.97
40059;SHT31;25763;49.972;8.568;2022-11-13T12:11:36;12.53;65.14
40059;SHT31;25763;49.972;8.568;2022-11-13T12:14:08;12.71;64.90
40059;SHT31;25763;49.972;8.568;2022-11-13T12:19:28;12.91;64.81
40059;SHT31;25763;49.972;8.568;2022-11-13T12:22:11;12.94;63.83
40059;SHT31;25763;49.972;8.568;2022-11-13T12:27:55;13.05;63.59
40059;SHT31;25763;49.972;8.568;2022-11-13T12:30:31;13.15;63.62
40059;SHT31;25763;49.972;8.568;2022-11-13T12:33:10;13.18;62.65
40059;SHT31;25763;49.972;8.568;2022-11-13T12:35:37;13.11;61.48
40059;SHT31;25763;49.972;8.568;2022-11-13T12:38:28;13.01;61.39
40059;SHT31;25763;49.972;8.568;2022-11-13T12:41:13;13.05;61.38
40059;SHT31;25763;49.972;8.568;2022-11-13T12:44:16;12.99;62.44
40059;SHT31;25763;49.972;8.568;2022-11-13T12:46:44;13.15;61.77
40059;SHT31;25763;49.972;8.568;2022-11-13T12:52:15;13.32;61.85
40059;SHT31;25763;49.972;8.568;2022-11-13T12:54:40;13.37;60.75
40059;SHT31;25763;49.972;8.568;2022-11-13T12:57:16;13.44;60.14
40059;SHT31;25763;49.972;8.568;2022-11-13T12:59:48;13.57;61.10
40059;SHT31;25763;49.972;8.568;2022-11-13T13:05:05;13.57;61.07
40059;SHT31;25763;49.972;8.568;2022-11-13T13:10:39;13.64;62.67
40059;SHT31;25763;49.972;8.568;2022-11-13T13:13:22;13.77;61.75
40059;SHT31;25763;49.972;8.568;2022-11-13T13:15:57;13.73;60.56
40059;SHT31;25763;49.972;8.568;2022-11-13T13:18:31;13.57;57.16
40059;SHT31;25763;49.972;8.568;2022-11-13T13:21:07;13.54;56.46
40059;SHT31;25763;49.972;8.568;2022-11-13T13:23:41;13.62;57.11
40059;SHT31;25763;49.972;8.568;2022-11-13T13:28:41;13.46;58.63
40059;SHT31;25763;49.972;8.568;2022-11-13T13:36:39;13.41;59.29
40059;SHT31;25763;49.972;8.568;2022-11-13T13:39:18;13.44;58.65
40059;SHT31;25763;49.972;8.568;2022-11-13T13:45:02;13.33;56.67
40059;SHT31;25763;49.972;8.568;2022-11-13T13:47:42;13.33;56.97
40059;SHT31;25763;49.972;8.568;2022-11-13T13:50:19;13.41;57.82
40059;SHT31;25763;49.972;8.568;2022-11-13T13:52:45;13.50;59.07
40059;SHT31;25763;49.972;8.568;2022-11-13T13:55:18;13.50;58.39
40059;SHT31;25763;49.972;8.568;2022-11-13T13:57:46;13.46;58.50
40059;SHT31;25763;49.972;8.568;2022-11-13T14:00:12;13.44;59.08
40059;SHT31;25763;49.972;8.568;2022-11-13T14:02:45;13.51;59.72
40059;SHT31;25763;49.972;8.568;2022-11-13T14:05:31;13.44;59.80
40059;SHT31;25763;49.972;8.568;2022-11-13T14:07:57;13.36;59.48
40059;SHT31;25763;49.972;8.568;2022-11-13T14:10:24;13.48;60.69
40059;SHT31;25763;49.972;8.568;2022-11-13T14:12:51;13.59;60.49
40059;SHT31;25763;49.972;8.568;2022-11-13T14:15:31;13.51;60.08
40059;SHT31;25763;49.972;8.568;2022-11-13T14:18:14;13.55;61.05
40059;SHT31;25763;49.972;8.568;2022-11-13T14:20:45;13.55;61.55
40059;SHT31;25763;49.972;8.568;2022-11-13T14:23:14;13.37;59.05
40059;SHT31;25763;49.972;8.568;2022-11-13T14:25:42;13.44;60.03
40059;SHT31;25763;49.972;8.568;2022-11-13T14:28:16;13.59;59.04
40059;SHT31;25763;49.972;8.568;2022-11-13T14:30:42;13.68;59.16
40059;SHT31;25763;49.972;8.568;2022-11-13T14:33:14;13.59;58.97
40059;SHT31;25763;49.972;8.568;2022-11-13T14:35:40;13.57;59.55
40059;SHT31;25763;49.972;8.568;2022-11-13T14:38:22;13.51;60.60
40059;SHT31;25763;49.972;8.568;2022-11-13T14:40:48;13.46;61.35
40059;SHT31;25763;49.972;8.568;2022-11-13T14:43:21;13.44;62.05
40059;SHT31;25763;49.972;8.568;2022-11-13T14:46:03;13.32;62.62
40059;SHT31;25763;49.972;8.568;2022-11-13T14:48:33;13.19;62.93
40059;SHT31;25763;49.972;8.568;2022-11-13T14:51:04;13.19;63.67
40059;SHT31;25763;49.972;8.568;2022-11-13T14:53:38;13.05;64.09
40059;SHT31;25763;49.972;8.568;2022-11-13T14:56:06;12.99;64.65
40059;SHT31;25763;49.972;8.568;2022-11-13T14:58:41;12.97;64.72
40059;SHT31;25763;49.972;8.568;2022-11-13T15:01:15;12.87;64.87
40059;SHT31;25763;49.972;8.568;2022-11-13T15:03:42;12.88;65.19
40059;SHT31;25763;49.972;8.568;2022-11-13T15:06:37;12.81;65.68
40059;SHT31;25763;49.972;8.568;2022-11-13T15:09:08;12.64;66.09
40059;SHT31;25763;49.972;8.568;2022-11-13T15:11:35;12.49;66.29
40059;SHT31;25763;49.972;8.568;2022-11-13T15:14:11;12.40;67.14
40059;SHT31;25763;49.972;8.568;2022-11-13T15:16:37;12.28;67.84
40059;SHT31;25763;49.972;8.568;2022-11-13T15:19:27;12.15;68.95
40059;SHT31;25763;49.972;8.568;2022-11-13T15:21:53;12.02;69.28
40059;SHT31;25763;49.972;8.568;2022-11-13T15:24:19;11.97;69.62
40059;SHT31;25763;49.972;8.568;2022-11-13T15:26:45;11.83;70.12
40059;SHT31;25763;49.972;8.568;2022-11-13T15:29:10;11.76;69.91
40059;SHT31;25763;49.972;8.568;2022-11-13T15:31:39;11.66;70.09
40059;SHT31;25763;49.972;8.568;2022-11-13T15:34:05;11.59;71.72
40059;SHT31;25763;49.972;8.568;2022-11-13T15:36:30;11.51;72.42
40059;SHT31;25763;49.972;8.568;2022-11-13T15:38:56;11.41;73.02
40059;SHT31;25763;49.972;8.568;2022-11-13T15:41:23;11.28;73.46
40059;SHT31;25763;49.972;8.568;2022-11-13T15:43:55;11.12;73.96
40059;SHT31;25763;49.972;8.568;2022-11-13T15:46:21;11.01;74.13
40059;SHT31;25763;49.972;8.568;2022-11-13T15:48:48;10.87;74.53
40059;SHT31;25763;49.972;8.568;2022-11-13T15:53:59;10.71;75.05
40059;SHT31;25763;49.972;8.568;2022-11-13T15:56:26;10.64;75.33
40059;SHT31;25763;49.972;8.568;2022-11-13T15:58:52;10.48;75.65
40059;SHT31;25763;49.972;8.568;2022-11-13T16:01:18;10.35;75.89
40059;SHT31;25763;49.972;8.568;2022-11-13T16:03:43;10.23;76.09
40059;SHT31;25763;49.972;8.568;2022-11-13T16:06:16;10.12;76.69
40059;SHT31;25763;49.972;8.568;2022-11-13T16:08:42;10.06;76.87
40059;SHT31;25763;49.972;8.568;2022-11-13T16:11:13;9.99;77.18
40059;SHT31;25763;49.972;8.568;2022-11-13T16:13:39;9.89;77.14
40059;SHT31;25763;49.972;8.568;2022-11-13T16:16:04;9.81;77.66
40059;SHT31;25763;49.972;8.568;2022-11-13T16:18:30;9.72;77.86
40059;SHT31;25763;49.972;8.568;2022-11-13T16:20:55;9.62;78.03
40059;SHT31;25763;49.972;8.568;2022-11-13T16:23:21;9.55;78.21
40059;SHT31;25763;49.972;8.568;2022-11-13T16:25:47;9.41;78.47
40059;SHT31;25763;49.972;8.568;2022-11-13T16:28:17;9.36;78.69
40059;SHT31;25763;49.972;8.568;2022-11-13T16:30:44;9.24;78.89
40059;SHT31;25763;49.972;8.568;2022-11-13T16:33:10;9.22;78.96
40059;SHT31;25763;49.972;8.568;2022-11-13T16:35:36;9.15;79.27
40059;SHT31;25763;49.972;8.568;2022-11-13T16:38:09;9.01;79.35
40059;SHT31;25763;49.972;8.568;2022-11-13T16:40:35;8.98;79.50
40059;SHT31;25763;49.972;8.568;2022-11-13T16:43:00;8.94;79.56
40059;SHT31;25763;49.972;8.568;2022-11-13T16:45:25;8.64;80.05
40059;SHT31;25763;49.972;8.568;2022-11-13T16:47:51;8.67;79.94
40059;SHT31;25763;49.972;8.568;2022-11-13T16:50:19;8.65;80.16
40059;SHT31;25763;49.972;8.568;2022-11-13T16:52:44;8.63;80.13
40059;SHT31;25763;49.972;8.568;2022-11-13T16:55:10;8.57;80.25
40059;SHT31;25763;49.972;8.568;2022-11-13T16:57:36;8.53;80.39
40059;SHT31;25763;49.972;8.568;2022-11-13T17:00:05;8.49;80.47
40059;SHT31;25763;49.972;8.568;2022-11-13T17:02:31;8.45;80.75